S-y Atmosphere — ZCGY6 — position and weather

sailwx.info

Track history (hours):
 
Tides and Currents Weather Stations Pressure Air Temp Water Temp Dewpoint Dewpoint Depression Visibility Wind Speed Wind Dir Waves Ship Positions

S-y Atmosphere

Last reported at 2016-Jul-24 16:10 UTC. Time now 2016-Jul-29 00:16 UTC.
Position N 43°37' E 007°16'.

Length 53 m; draft 4 m.

Type: Sailing vessel. MMSI: 319726000.

Date/timePositionNaut miles runAvg speedWind from/ knotsBaromVisibWave heightAir tempDewpointWater temp
2016-Jul-24 16:10N 43°37' E 007°16'910.4
2016-Jul-24 15:16N 43°31' E 007°07'4 4.2
2016-Jul-24 14:21N 43°33' E 007°01'0 0.0
2016-Jul-24 13:33N 43°33' E 007°01'0 0.0
2016-Jul-24 12:34N 43°33' E 007°01'0 0.0
2016-Jul-24 11:18N 43°33' E 007°01'0 0.0
2016-Jul-24 10:09N 43°33' E 007°01'0 0.0
2016-Jul-24 09:30N 43°33' E 007°01'0 0.0
2016-Jul-24 08:33N 43°33' E 007°01'0 0.0
2016-Jul-24 07:24N 43°33' E 007°01'0 0.0
2016-Jul-24 06:32N 43°33' E 007°01'0 0.0
2016-Jul-23 21:29N 43°33' E 007°01'0 0.0
2016-Jul-23 20:24N 43°32' E 007°01'0 0.0
2016-Jul-23 19:34N 43°33' E 007°01'0 0.0
2016-Jul-23 18:34N 43°32' E 007°01'0 0.0
2016-Jul-23 17:33N 43°33' E 007°01'0 0.0
2016-Jul-23 16:33N 43°33' E 007°01'0 0.0
2016-Jul-23 15:32N 43°33' E 007°01'0 0.0
2016-Jul-23 14:29N 43°32' E 007°01'0 0.0
2016-Jul-23 10:33N 43°32' E 007°01'0 0.0
2016-Jul-23 09:33N 43°33' E 007°01'0 0.0
2016-Jul-23 08:34N 43°33' E 007°01'0 0.0
2016-Jul-23 07:33N 43°33' E 007°01'2 1.5
2016-Jul-23 06:19N 43°31' E 007°00'2 1.1
2016-Jul-23 04:34N 43°33' E 007°01'0 0.0
2016-Jul-23 03:34N 43°32' E 007°01'0 0.0
2016-Jul-23 02:33N 43°32' E 007°01'0 0.0
2016-Jul-23 01:33N 43°32' E 007°01'0 0.0
2016-Jul-23 00:26N 43°32' E 007°01'0 0.0
2016-Jul-22 23:27N 43°32' E 007°01'0 0.0
2016-Jul-22 22:31N 43°32' E 007°01'0 0.0
2016-Jul-22 21:31N 43°32' E 007°01'0 0.0
2016-Jul-22 20:33N 43°32' E 007°01'0 0.0
2016-Jul-22 19:33N 43°32' E 007°01'22 9.7
2016-Jul-22 17:20N 43°17' E 006°41'22 2.1
2016-Jul-22 07:15N 43°30' E 007°04'2 1.3
2016-Jul-22 05:33N 43°32' E 007°03'0 0.0
2016-Jul-22 04:34N 43°32' E 007°03'0 0.0
2016-Jul-22 03:34N 43°32' E 007°03'0 0.0
2016-Jul-22 02:34N 43°32' E 007°03'0 0.0
2016-Jul-22 01:34N 43°32' E 007°03'0 0.0
2016-Jul-22 00:34N 43°32' E 007°03'0 0.0
2016-Jul-21 23:33N 43°32' E 007°03'0 0.0
2016-Jul-21 22:33N 43°32' E 007°03'0 0.0
2016-Jul-21 21:33N 43°32' E 007°03'0 0.0
2016-Jul-21 20:33N 43°32' E 007°03'0 0.0
2016-Jul-21 19:33N 43°32' E 007°03'0 0.0
2016-Jul-21 18:33N 43°32' E 007°03'0 0.0
2016-Jul-21 17:33N 43°32' E 007°03'0 0.0
2016-Jul-21 16:33N 43°32' E 007°03'0 0.0
2016-Jul-21 15:34N 43°32' E 007°03'3 3.2
2016-Jul-21 14:34N 43°31' E 006°58'1 0.1
2016-Jul-21 03:22N 43°31' E 006°57'0 0.0
2016-Jul-21 02:31N 43°31' E 006°57'0 0.0
2016-Jul-21 01:16N 43°31' E 006°57'0 0.0
2016-Jul-20 20:13N 43°31' E 006°57'0 0.0
2016-Jul-20 13:15N 43°31' E 006°57'6 8.2
2016-Jul-20 12:33N 43°30' E 007°04'  
Track history (hours):
 
Tides and Currents Weather Stations Pressure Air Temp Water Temp Dewpoint Dewpoint Depression Visibility Wind Speed Wind Dir Waves Ship Positions

S-y Atmosphere

Last reported at 2016-Jul-24 16:10 UTC. Time now 2016-Jul-29 00:16 UTC.
Position N 43°37' E 007°16'.

Length 53 m; draft 4 m.

Type: Sailing vessel. MMSI: 319726000.

Date/timePositionNaut miles runAvg speedWind from/ knotsBaromVisibWave heightAir tempDewpointWater temp
2016-Jul-24 16:10N 43°37' E 007°16'910.4
2016-Jul-24 15:16N 43°31' E 007°07'4 4.2
2016-Jul-24 14:21N 43°33' E 007°01'0 0.0
2016-Jul-24 13:33N 43°33' E 007°01'0 0.0
2016-Jul-24 12:34N 43°33' E 007°01'0 0.0
2016-Jul-24 11:18N 43°33' E 007°01'0 0.0
2016-Jul-24 10:09N 43°33' E 007°01'0 0.0
2016-Jul-24 09:30N 43°33' E 007°01'0 0.0
2016-Jul-24 08:33N 43°33' E 007°01'0 0.0
2016-Jul-24 07:24N 43°33' E 007°01'0 0.0
2016-Jul-24 06:32N 43°33' E 007°01'0 0.0
2016-Jul-23 21:29N 43°33' E 007°01'0 0.0
2016-Jul-23 20:24N 43°32' E 007°01'0 0.0
2016-Jul-23 19:34N 43°33' E 007°01'0 0.0
2016-Jul-23 18:34N 43°32' E 007°01'0 0.0
2016-Jul-23 17:33N 43°33' E 007°01'0 0.0
2016-Jul-23 16:33N 43°33' E 007°01'0 0.0
2016-Jul-23 15:32N 43°33' E 007°01'0 0.0
2016-Jul-23 14:29N 43°32' E 007°01'0 0.0
2016-Jul-23 10:33N 43°32' E 007°01'0 0.0
2016-Jul-23 09:33N 43°33' E 007°01'0 0.0
2016-Jul-23 08:34N 43°33' E 007°01'0 0.0
2016-Jul-23 07:33N 43°33' E 007°01'2 1.5
2016-Jul-23 06:19N 43°31' E 007°00'2 1.1
2016-Jul-23 04:34N 43°33' E 007°01'0 0.0
2016-Jul-23 03:34N 43°32' E 007°01'0 0.0
2016-Jul-23 02:33N 43°32' E 007°01'0 0.0
2016-Jul-23 01:33N 43°32' E 007°01'0 0.0
2016-Jul-23 00:26N 43°32' E 007°01'0 0.0
2016-Jul-22 23:27N 43°32' E 007°01'0 0.0
2016-Jul-22 22:31N 43°32' E 007°01'0 0.0
2016-Jul-22 21:31N 43°32' E 007°01'0 0.0
2016-Jul-22 20:33N 43°32' E 007°01'0 0.0
2016-Jul-22 19:33N 43°32' E 007°01'22 9.7
2016-Jul-22 17:20N 43°17' E 006°41'22 2.1
2016-Jul-22 07:15N 43°30' E 007°04'2 1.3
2016-Jul-22 05:33N 43°32' E 007°03'0 0.0
2016-Jul-22 04:34N 43°32' E 007°03'0 0.0
2016-Jul-22 03:34N 43°32' E 007°03'0 0.0
2016-Jul-22 02:34N 43°32' E 007°03'0 0.0
2016-Jul-22 01:34N 43°32' E 007°03'0 0.0
2016-Jul-22 00:34N 43°32' E 007°03'0 0.0
2016-Jul-21 23:33N 43°32' E 007°03'0 0.0
2016-Jul-21 22:33N 43°32' E 007°03'0 0.0
2016-Jul-21 21:33N 43°32' E 007°03'0 0.0
2016-Jul-21 20:33N 43°32' E 007°03'0 0.0
2016-Jul-21 19:33N 43°32' E 007°03'0 0.0
2016-Jul-21 18:33N 43°32' E 007°03'0 0.0
2016-Jul-21 17:33N 43°32' E 007°03'0 0.0
2016-Jul-21 16:33N 43°32' E 007°03'0 0.0
2016-Jul-21 15:34N 43°32' E 007°03'3 3.2
2016-Jul-21 14:34N 43°31' E 006°58'1 0.1
2016-Jul-21 03:22N 43°31' E 006°57'0 0.0
2016-Jul-21 02:31N 43°31' E 006°57'0 0.0
2016-Jul-21 01:16N 43°31' E 006°57'0 0.0
2016-Jul-20 20:13N 43°31' E 006°57'0 0.0
2016-Jul-20 13:15N 43°31' E 006°57'6 8.2
2016-Jul-20 12:33N 43°30' E 007°04'  

Dump ship's entire track history